createdAt,value
2022-11-01T00:01:50.611Z,13.23
2022-11-01T00:04:18.039Z,11.17
2022-11-01T00:06:44.871Z,10.20
2022-11-01T00:09:11.987Z,11.17
2022-11-01T00:11:38.791Z,11.83
2022-11-01T00:14:05.983Z,11.23
2022-11-01T00:16:32.835Z,10.83
2022-11-01T00:18:59.486Z,10.80
2022-11-01T00:21:26.225Z,9.60
2022-11-01T00:23:52.997Z,10.70
2022-11-01T00:26:22.536Z,8.73
2022-11-01T00:28:49.774Z,10.90
2022-11-01T00:31:18.724Z,9.90
2022-11-01T00:33:45.501Z,11.27
2022-11-01T00:36:12.834Z,11.40
2022-11-01T00:38:40.018Z,9.40
2022-11-01T00:41:07.090Z,9.93
2022-11-01T00:43:35.834Z,14.90
2022-11-01T00:46:03.326Z,9.47
2022-11-01T00:48:30.325Z,11.30
2022-11-01T00:50:57.147Z,11.07
2022-11-01T00:53:23.809Z,10.67
2022-11-01T00:55:50.582Z,10.47
2022-11-01T00:58:17.318Z,10.47
2022-11-01T01:00:44.025Z,10.20
2022-11-01T01:03:10.742Z,11.30
2022-11-01T01:05:37.444Z,10.67
2022-11-01T01:08:04.329Z,10.10
2022-11-01T01:10:31.174Z,12.30
2022-11-01T01:12:58.179Z,9.37
2022-11-01T01:15:25.091Z,11.10
2022-11-01T01:17:52.876Z,11.97
2022-11-01T01:20:20.311Z,9.20
2022-11-01T01:22:47.117Z,10.13
2022-11-01T01:25:14.011Z,12.70
2022-11-01T01:27:40.673Z,10.13
2022-11-01T01:30:08.078Z,10.93
2022-11-01T01:32:35.601Z,11.20
2022-11-01T01:35:02.577Z,8.90
2022-11-01T01:37:29.229Z,10.53
2022-11-01T01:39:56.093Z,9.27
2022-11-01T01:42:38.004Z,9.90
2022-11-01T01:45:04.651Z,11.10
2022-11-01T01:47:32.417Z,10.50
2022-11-01T01:50:29.664Z,9.93
2022-11-01T01:53:08.114Z,10.67
2022-11-01T01:55:49.112Z,12.93
2022-11-01T01:58:21.760Z,13.00
2022-11-01T02:00:49.528Z,13.47
2022-11-01T02:03:16.478Z,10.07
2022-11-01T02:05:58.031Z,11.60
2022-11-01T02:08:28.230Z,10.30
2022-11-01T02:11:01.722Z,12.43
2022-11-01T02:13:29.903Z,12.23
2022-11-01T02:16:22.562Z,10.23
2022-11-01T02:19:20.834Z,9.33
2022-11-01T02:21:56.145Z,9.00
2022-11-01T02:24:46.587Z,10.70
2022-11-01T02:27:25.381Z,9.93
2022-11-01T02:30:05.741Z,8.80
2022-11-01T02:32:47.700Z,9.80
2022-11-01T02:35:24.156Z,8.57
2022-11-01T02:37:55.934Z,10.83
2022-11-01T02:40:30.809Z,8.77
2022-11-01T02:43:04.450Z,9.27
2022-11-01T02:45:31.256Z,12.00
2022-11-01T02:47:59.418Z,8.40
2022-11-01T02:50:38.770Z,13.80
2022-11-01T02:53:05.991Z,9.40
2022-11-01T02:55:35.994Z,16.20
2022-11-01T02:58:20.137Z,8.37
2022-11-01T03:00:46.938Z,10.87
2022-11-01T03:03:26.563Z,9.00
2022-11-01T03:06:07.226Z,8.87
2022-11-01T03:08:48.472Z,7.50
2022-11-01T03:11:19.867Z,8.73
2022-11-01T03:13:56.424Z,8.07
2022-11-01T03:16:35.961Z,10.97
2022-11-01T03:19:21.874Z,8.97
2022-11-01T03:21:59.317Z,15.30
2022-11-01T03:24:40.686Z,7.80
2022-11-01T03:27:26.946Z,13.00
2022-11-01T03:30:05.386Z,8.87
2022-11-01T03:32:38.152Z,10.33
2022-11-01T03:35:08.622Z,9.90
2022-11-01T03:37:39.442Z,8.10
2022-11-01T03:40:07.575Z,10.80
2022-11-01T03:42:36.488Z,8.70
2022-11-01T03:45:11.212Z,9.20
2022-11-01T03:47:38.079Z,8.17
2022-11-01T03:50:16.253Z,8.10
2022-11-01T03:52:43.641Z,9.40
2022-11-01T03:55:20.627Z,8.10
2022-11-01T03:57:48.495Z,7.80
2022-11-01T04:00:21.173Z,8.83
2022-11-01T04:02:52.320Z,8.27
2022-11-01T04:05:21.869Z,8.63
2022-11-01T04:07:48.918Z,8.90
2022-11-01T04:10:15.961Z,12.93
2022-11-01T04:12:45.649Z,8.83
2022-11-01T04:15:31.631Z,13.93
2022-11-01T04:18:42.496Z,8.60
2022-11-01T04:21:10.546Z,10.50
2022-11-01T04:23:37.630Z,8.33
2022-11-01T04:26:05.613Z,8.00
2022-11-01T04:28:32.280Z,14.60
2022-11-01T04:30:59.196Z,8.77
2022-11-01T04:33:25.888Z,9.13
2022-11-01T04:35:52.544Z,9.40
2022-11-01T04:38:19.210Z,11.93
2022-11-01T04:40:46.086Z,8.90
2022-11-01T04:43:13.456Z,7.40
2022-11-01T04:45:40.631Z,7.87
2022-11-01T04:48:07.290Z,8.37
2022-11-01T04:50:35.256Z,12.47
2022-11-01T04:53:02.879Z,9.80
2022-11-01T04:55:30.002Z,8.63
2022-11-01T04:57:57.071Z,15.63
2022-11-01T05:00:24.409Z,9.43
2022-11-01T05:02:51.245Z,8.80
2022-11-01T05:05:18.657Z,9.20
2022-11-01T05:07:45.711Z,10.83
2022-11-01T05:10:12.863Z,7.70
2022-11-01T05:12:39.802Z,8.43
2022-11-01T05:15:07.290Z,11.77
2022-11-01T05:17:34.013Z,12.03
2022-11-01T05:20:00.676Z,9.40
2022-11-01T05:22:27.356Z,8.53
2022-11-01T05:24:54.109Z,10.63
2022-11-01T05:27:20.824Z,10.70
2022-11-01T05:29:48.130Z,13.67
2022-11-01T05:32:14.790Z,10.10
2022-11-01T05:34:41.508Z,11.10
2022-11-01T05:37:08.209Z,13.40
2022-11-01T05:39:34.975Z,11.30
2022-11-01T05:42:02.984Z,15.87
2022-11-01T05:44:29.937Z,10.63
2022-11-01T05:46:56.721Z,13.07
2022-11-01T05:49:24.623Z,14.60
2022-11-01T05:51:51.423Z,12.53
2022-11-01T05:54:18.235Z,12.30
2022-11-01T05:56:44.910Z,10.17
2022-11-01T05:59:11.577Z,10.47
2022-11-01T06:01:38.406Z,17.73
2022-11-01T06:04:05.547Z,15.63
2022-11-01T06:06:32.431Z,16.07
2022-11-01T06:08:59.849Z,17.90
2022-11-01T06:11:27.496Z,11.00
2022-11-01T06:13:58.452Z,22.27
2022-11-01T06:16:26.347Z,15.63
2022-11-01T06:18:53.769Z,10.97
2022-11-01T06:21:26.084Z,25.93
2022-11-01T06:23:56.181Z,20.77
2022-11-01T06:26:22.923Z,15.13
2022-11-01T06:28:49.792Z,18.53
2022-11-01T06:31:16.495Z,13.07
2022-11-01T06:33:43.228Z,22.07
2022-11-01T06:36:09.990Z,22.03
2022-11-01T06:38:36.735Z,18.83
2022-11-01T06:41:03.757Z,23.80
2022-11-01T06:43:30.471Z,19.00
2022-11-01T06:46:00.989Z,25.80
2022-11-01T06:48:28.403Z,28.80
2022-11-01T06:50:55.848Z,27.43
2022-11-01T06:53:25.367Z,29.50
2022-11-01T06:55:53.257Z,18.37
2022-11-01T06:58:20.096Z,17.90
2022-11-01T07:00:46.841Z,18.80
2022-11-01T07:03:14.789Z,31.77
2022-11-01T07:05:41.782Z,17.97
2022-11-01T07:08:11.168Z,21.27
2022-11-01T07:10:40.519Z,14.87
2022-11-01T07:13:09.980Z,20.13
2022-11-01T07:15:36.778Z,20.30
2022-11-01T07:18:05.894Z,14.20
2022-11-01T07:20:41.418Z,16.40
2022-11-01T07:23:14.296Z,11.43
2022-11-01T07:25:41.193Z,15.00
2022-11-01T07:28:08.381Z,24.77
2022-11-01T07:30:35.069Z,12.17
2022-11-01T07:33:04.731Z,16.87
2022-11-01T07:35:31.825Z,16.63
2022-11-01T07:38:01.084Z,21.40
2022-11-01T07:40:29.680Z,12.73
2022-11-01T07:42:59.980Z,12.80
2022-11-01T07:45:29.500Z,15.87
2022-11-01T07:48:05.368Z,15.00
2022-11-01T07:50:33.929Z,16.33
2022-11-01T07:53:02.352Z,7.93
2022-11-01T07:55:29.362Z,12.53
2022-11-01T07:57:56.517Z,12.23
2022-11-01T08:00:23.756Z,12.37
2022-11-01T08:02:50.814Z,9.30
2022-11-01T08:05:17.994Z,11.73
2022-11-01T08:07:44.647Z,16.67
2022-11-01T08:10:12.326Z,14.30
2022-11-01T08:12:39.225Z,7.90
2022-11-01T08:15:06.866Z,10.73
2022-11-01T08:17:34.643Z,10.63
2022-11-01T08:20:01.729Z,10.47
2022-11-01T08:22:28.535Z,7.77
2022-11-01T08:24:55.305Z,15.63
2022-11-01T08:27:22.144Z,5.70
2022-11-01T08:29:48.861Z,8.13
2022-11-01T08:32:19.226Z,5.93
2022-11-01T08:34:45.879Z,13.43
2022-11-01T08:37:12.541Z,11.43
2022-11-01T08:39:39.255Z,14.40
2022-11-01T08:42:05.958Z,13.73
2022-11-01T08:44:34.589Z,7.60
2022-11-01T08:47:01.741Z,6.23
2022-11-01T08:49:28.435Z,8.10
2022-11-01T08:51:56.047Z,9.43
2022-11-01T08:54:22.837Z,11.43
2022-11-01T08:56:49.529Z,9.97
2022-11-01T08:59:16.185Z,9.53
2022-11-01T09:01:42.993Z,9.83
2022-11-01T09:04:09.800Z,11.20
2022-11-01T09:06:36.659Z,12.33
2022-11-01T09:09:04.262Z,6.57
2022-11-01T09:11:31.087Z,13.13
2022-11-01T09:14:01.280Z,6.57
2022-11-01T09:16:28.440Z,10.37
2022-11-01T09:18:55.230Z,10.80
2022-11-01T09:21:21.900Z,4.90
2022-11-01T09:23:48.741Z,4.80
2022-11-01T09:26:15.490Z,6.20
2022-11-01T09:28:42.201Z,18.27
2022-11-01T09:31:26.849Z,4.67
2022-11-01T09:33:57.697Z,4.00
2022-11-01T09:36:25.320Z,10.43
2022-11-01T09:38:52.124Z,9.70
2022-11-01T09:41:24.950Z,6.33
2022-11-01T09:43:52.997Z,5.23
2022-11-01T09:46:26.280Z,4.03
2022-11-01T09:48:55.391Z,4.93
2022-11-01T09:51:24.565Z,12.40
2022-11-01T09:53:54.422Z,4.60
2022-11-01T09:57:05.504Z,6.37
2022-11-01T09:59:57.833Z,3.60
2022-11-01T10:03:01.527Z,3.60
2022-11-01T10:05:40.198Z,3.00
2022-11-01T10:08:34.283Z,6.30
2022-11-01T10:11:35.254Z,4.83
2022-11-01T10:14:05.079Z,4.93
2022-11-01T10:16:41.957Z,5.47
2022-11-01T10:19:17.443Z,7.27
2022-11-01T10:21:49.897Z,6.30
2022-11-01T10:24:22.489Z,15.63
2022-11-01T10:26:56.432Z,3.60
2022-11-01T10:29:28.317Z,6.37
2022-11-01T10:31:56.359Z,12.20
2022-11-01T10:34:38.427Z,4.43
2022-11-01T10:37:24.129Z,3.97
2022-11-01T10:39:58.970Z,3.33
2022-11-01T10:42:29.896Z,5.60
2022-11-01T10:45:00.352Z,6.20
2022-11-01T10:47:28.192Z,3.73
2022-11-01T10:50:07.644Z,5.20
2022-11-01T10:52:52.769Z,3.80
2022-11-01T10:55:34.414Z,2.40
2022-11-01T10:58:13.851Z,4.53
2022-11-01T11:00:41.953Z,4.60
2022-11-01T11:03:31.152Z,4.77
2022-11-01T11:06:01.353Z,3.33
2022-11-01T11:08:28.187Z,8.53
2022-11-01T11:10:59.459Z,5.90
2022-11-01T11:13:27.439Z,2.20
2022-11-01T11:16:04.472Z,4.10
2022-11-01T11:18:42.143Z,2.23
2022-11-01T11:21:11.743Z,6.87
2022-11-01T11:23:46.561Z,3.30
2022-11-01T11:26:16.865Z,2.60
2022-11-01T11:28:48.588Z,5.07
2022-11-01T11:31:34.901Z,6.57
2022-11-01T11:34:28.538Z,2.80
2022-11-01T11:36:55.758Z,5.90
2022-11-01T11:39:27.009Z,4.47
2022-11-01T11:41:54.025Z,4.63
2022-11-01T11:44:36.673Z,5.63
2022-11-01T11:47:03.424Z,4.40
2022-11-01T11:49:30.189Z,7.53
2022-11-01T11:51:56.847Z,4.93
2022-11-01T11:54:31.592Z,11.23
2022-11-01T11:57:17.840Z,5.73
2022-11-01T12:02:30.557Z,6.13
2022-11-01T12:05:01.604Z,8.40
2022-11-01T12:07:31.173Z,7.17
2022-11-01T12:10:02.382Z,4.10
2022-11-01T12:12:35.302Z,3.70
2022-11-01T12:15:03.907Z,5.63
2022-11-01T12:17:35.155Z,10.10
2022-11-01T12:20:13.742Z,9.17
2022-11-01T12:22:44.979Z,2.80
2022-11-01T12:25:20.631Z,2.90
2022-11-01T12:28:26.133Z,3.33
2022-11-01T12:30:59.133Z,3.47
2022-11-01T12:33:33.959Z,2.87
2022-11-01T12:36:00.715Z,5.10
2022-11-01T12:38:47.495Z,2.33
2022-11-01T12:41:34.307Z,5.10
2022-11-01T12:44:12.567Z,2.87
2022-11-01T12:46:54.375Z,3.23
2022-11-01T12:49:32.555Z,6.80
2022-11-01T12:52:23.359Z,6.80
2022-11-01T12:55:38.875Z,4.37
2022-11-01T12:58:15.553Z,2.03
2022-11-01T13:01:13.335Z,5.47
2022-11-01T13:03:48.954Z,3.30
2022-11-01T13:06:43.636Z,7.03
2022-11-01T13:09:40.681Z,7.77
2022-11-01T13:12:22.817Z,2.43
2022-11-01T13:14:55.380Z,2.97
2022-11-01T13:17:32.125Z,10.40
2022-11-01T13:20:01.855Z,6.03
2022-11-01T13:22:46.636Z,3.43
2022-11-01T13:25:30.725Z,8.07
2022-11-01T13:28:35.111Z,5.80
2022-11-01T13:31:11.080Z,10.80
2022-11-01T13:33:52.471Z,4.50
2022-11-01T13:36:27.295Z,5.43
2022-11-01T13:39:04.978Z,3.30
2022-11-01T13:41:46.827Z,3.30
2022-11-01T13:44:17.993Z,5.50
2022-11-01T13:47:34.924Z,4.53
2022-11-01T13:50:30.545Z,8.63
2022-11-01T13:53:06.338Z,1.63
2022-11-01T13:55:47.229Z,4.70
2022-11-01T13:58:23.939Z,2.37
2022-11-01T14:00:52.813Z,8.80
2022-11-01T14:03:22.791Z,5.90
2022-11-01T14:06:25.042Z,3.13
2022-11-01T14:09:23.969Z,12.07
2022-11-01T14:12:33.934Z,6.30
2022-11-01T14:15:13.531Z,7.27
2022-11-01T14:17:46.210Z,6.03
2022-11-01T14:20:14.394Z,2.53
2022-11-01T14:22:45.015Z,5.10
2022-11-01T14:25:12.363Z,3.77
2022-11-01T14:27:45.899Z,4.00
2022-11-01T14:30:26.090Z,4.83
2022-11-01T14:33:01.139Z,2.70
2022-11-01T14:35:34.557Z,3.93
2022-11-01T14:38:06.943Z,5.30
2022-11-01T14:40:39.182Z,2.73
2022-11-01T14:43:22.498Z,4.90
2022-11-01T14:45:57.425Z,5.10
2022-11-01T14:48:30.044Z,4.17
2022-11-01T14:51:16.278Z,10.93
2022-11-01T14:53:45.641Z,5.90
2022-11-01T14:56:21.925Z,3.50
2022-11-01T14:58:48.909Z,5.70
2022-11-01T15:01:23.438Z,6.90
2022-11-01T15:03:55.292Z,7.53
2022-11-01T15:06:30.469Z,15.43
2022-11-01T15:09:03.686Z,6.40
2022-11-01T15:11:32.923Z,2.70
2022-11-01T15:14:03.259Z,5.50
2022-11-01T15:16:30.176Z,9.63
2022-11-01T15:19:03.001Z,4.50
2022-11-01T15:21:31.423Z,2.63
2022-11-01T15:23:59.071Z,7.80
2022-11-01T15:26:28.078Z,6.10
2022-11-01T15:29:01.407Z,3.20
2022-11-01T15:31:29.036Z,4.30
2022-11-01T15:34:22.972Z,3.00
2022-11-01T15:36:49.832Z,1.83
2022-11-01T15:39:21.075Z,4.80
2022-11-01T15:41:48.655Z,6.00
2022-11-01T15:44:21.036Z,6.87
2022-11-01T15:46:49.348Z,3.00
2022-11-01T15:49:42.184Z,4.83
2022-11-01T15:52:18.518Z,6.53
2022-11-01T15:55:02.438Z,6.93
2022-11-01T15:57:33.684Z,2.83
2022-11-01T16:00:14.022Z,4.27
2022-11-01T16:02:51.248Z,4.50
2022-11-01T16:05:20.888Z,3.83
2022-11-01T16:07:48.800Z,4.87
2022-11-01T16:10:27.563Z,4.23
2022-11-01T16:12:55.313Z,3.83
2022-11-01T16:15:29.716Z,4.27
2022-11-01T16:18:00.019Z,6.10
2022-11-01T16:20:47.212Z,5.27
2022-11-01T16:23:30.544Z,13.70
2022-11-01T16:26:01.757Z,10.13
2022-11-01T16:28:31.135Z,3.60
2022-11-01T16:30:57.911Z,3.93
2022-11-01T16:33:29.712Z,3.20
2022-11-01T16:35:57.615Z,6.47
2022-11-01T16:38:27.212Z,5.37
2022-11-01T16:40:57.306Z,5.60
2022-11-01T16:43:26.005Z,2.77
2022-11-01T16:45:52.993Z,8.40
2022-11-01T16:48:50.970Z,11.40
2022-11-01T16:51:18.218Z,7.67
2022-11-01T16:53:45.692Z,3.17
2022-11-01T16:56:42.266Z,2.30
2022-11-01T16:59:23.601Z,5.00
2022-11-01T17:01:52.212Z,3.57
2022-11-01T17:04:19.639Z,9.37
2022-11-01T17:06:46.396Z,8.87
2022-11-01T17:09:15.144Z,5.60
2022-11-01T17:11:47.837Z,6.70
2022-11-01T17:14:18.359Z,5.00
2022-11-01T17:16:47.673Z,9.40
2022-11-01T17:19:24.109Z,5.23
2022-11-01T17:21:52.213Z,5.47
2022-11-01T17:24:22.570Z,7.83
2022-11-01T17:26:50.261Z,3.17
2022-11-01T17:29:16.998Z,9.43
2022-11-01T17:31:43.732Z,3.30
2022-11-01T17:34:10.422Z,5.00
2022-11-01T17:36:41.190Z,5.43
2022-11-01T17:39:10.140Z,5.30
2022-11-01T17:41:37.141Z,6.83
2022-11-01T17:44:03.850Z,12.53
2022-11-01T17:46:30.553Z,6.33
2022-11-01T17:48:57.339Z,4.47
2022-11-01T17:51:24.068Z,8.60
2022-11-01T17:53:55.469Z,3.77
2022-11-01T17:56:24.024Z,6.57
2022-11-01T17:58:53.470Z,15.63
2022-11-01T18:01:21.376Z,6.00
2022-11-01T18:03:48.669Z,4.00
2022-11-01T18:06:15.471Z,8.00
2022-11-01T18:08:50.893Z,3.97
2022-11-01T18:11:46.031Z,15.10
2022-11-01T18:14:30.948Z,11.40
2022-11-01T18:17:26.664Z,7.50
2022-11-01T18:19:59.182Z,9.73
2022-11-01T18:22:36.849Z,10.10
2022-11-01T18:25:03.488Z,10.13
2022-11-01T18:27:35.712Z,6.90
2022-11-01T18:30:12.522Z,6.23
2022-11-01T18:32:45.143Z,3.40
2022-11-01T18:35:21.071Z,7.30
2022-11-01T18:38:02.568Z,10.17
2022-11-01T18:40:53.805Z,9.37
2022-11-01T18:43:21.283Z,5.40
2022-11-01T18:46:11.561Z,11.33
2022-11-01T18:48:35.138Z,17.30
2022-11-01T18:51:05.754Z,4.00
2022-11-01T18:53:34.160Z,11.73
2022-11-01T18:56:21.552Z,5.93
2022-11-01T18:58:50.127Z,4.73
2022-11-01T19:01:20.890Z,10.00
2022-11-01T19:03:59.910Z,6.83
2022-11-01T19:06:27.200Z,5.57
2022-11-01T19:08:59.828Z,5.33
2022-11-01T19:11:27.710Z,13.67
2022-11-01T19:13:58.092Z,7.00
2022-11-01T19:16:24.971Z,9.20
2022-11-01T19:18:52.405Z,9.50
2022-11-01T19:21:20.871Z,8.97
2022-11-01T19:23:50.178Z,5.20
2022-11-01T19:26:35.738Z,7.90
2022-11-01T19:29:29.479Z,7.60
2022-11-01T19:32:02.092Z,7.10
2022-11-01T19:34:38.583Z,6.47
2022-11-01T19:37:24.022Z,3.37
2022-11-01T19:39:52.105Z,8.37
2022-11-01T19:42:29.360Z,11.23
2022-11-01T19:45:27.808Z,5.90
2022-11-01T19:47:54.842Z,6.00
2022-11-01T19:50:39.241Z,5.80
2022-11-01T19:53:23.110Z,10.90
2022-11-01T19:55:53.740Z,7.60
2022-11-01T19:58:28.313Z,18.90
2022-11-01T20:01:03.134Z,4.73
2022-11-01T20:03:58.078Z,13.13
2022-11-01T20:06:32.337Z,5.40
2022-11-01T20:09:04.467Z,10.03
2022-11-01T20:11:33.020Z,15.10
2022-11-01T20:14:00.227Z,7.77
2022-11-01T20:16:26.900Z,7.57
2022-11-01T20:18:53.672Z,9.17
2022-11-01T20:21:20.511Z,14.17
2022-11-01T20:23:47.236Z,14.53
2022-11-01T20:26:13.975Z,9.77
2022-11-01T20:28:40.727Z,11.83
2022-11-01T20:31:07.457Z,10.23
2022-11-01T20:33:34.525Z,9.93
2022-11-01T20:36:08.290Z,8.67
2022-11-01T20:38:37.693Z,13.50
2022-11-01T20:41:04.381Z,13.57
2022-11-01T20:43:31.093Z,15.50
2022-11-01T20:45:58.030Z,13.97
2022-11-01T20:48:25.761Z,12.37
2022-11-01T20:50:53.909Z,14.43
2022-11-01T20:53:20.987Z,18.90
2022-11-01T20:55:48.775Z,16.13
2022-11-01T20:58:15.564Z,14.37
2022-11-01T21:00:42.875Z,15.03
2022-11-01T21:03:15.219Z,14.17
2022-11-01T21:05:43.883Z,13.77
2022-11-01T21:08:10.558Z,13.70
2022-11-01T21:10:42.817Z,10.67
2022-11-01T21:13:31.647Z,11.93
2022-11-01T21:15:59.570Z,13.00
2022-11-01T21:18:35.264Z,15.77
2022-11-01T21:21:13.686Z,12.30
2022-11-01T21:23:41.498Z,16.07
2022-11-01T21:26:17.455Z,17.47
2022-11-01T21:28:49.640Z,13.67
2022-11-01T21:31:29.719Z,11.07
2022-11-01T21:34:04.490Z,15.03
2022-11-01T21:36:39.293Z,13.37
2022-11-01T21:39:16.888Z,13.33
2022-11-01T21:41:49.671Z,11.10
2022-11-01T21:44:22.793Z,8.17
2022-11-01T21:46:50.831Z,12.10
2022-11-01T21:49:25.995Z,29.97
2022-11-01T21:51:54.411Z,8.13
2022-11-01T21:54:21.778Z,11.37
2022-11-01T21:56:48.573Z,7.30
2022-11-01T21:59:15.428Z,6.50
2022-11-01T22:01:45.148Z,7.63
2022-11-01T22:04:12.697Z,7.10
2022-11-01T22:06:40.006Z,4.10
2022-11-01T22:09:07.842Z,9.57
2022-11-01T22:11:35.850Z,4.70
2022-11-01T22:14:03.325Z,6.47
2022-11-01T22:16:30.093Z,7.80
2022-11-01T22:18:56.759Z,4.67
2022-11-01T22:21:23.451Z,4.83
2022-11-01T22:23:50.237Z,8.67
2022-11-01T22:26:16.926Z,6.37
2022-11-01T22:28:43.693Z,10.40
2022-11-01T22:31:10.387Z,6.30
2022-11-01T22:33:37.136Z,10.43
2022-11-01T22:36:06.871Z,6.73
2022-11-01T22:38:42.099Z,9.30
2022-11-01T22:41:15.749Z,10.13
2022-11-01T22:43:45.384Z,5.53
2022-11-01T22:46:23.040Z,10.07
2022-11-01T22:48:52.909Z,6.73
2022-11-01T22:51:40.594Z,5.63
2022-11-01T22:54:25.401Z,10.40
2022-11-01T22:56:58.508Z,4.23
2022-11-01T22:59:29.334Z,4.60
2022-11-01T23:02:17.113Z,7.67
2022-11-01T23:04:43.885Z,5.87
2022-11-01T23:07:51.085Z,6.60
2022-11-01T23:10:33.836Z,3.00
2022-11-01T23:13:31.136Z,4.50
2022-11-01T23:16:00.051Z,18.73
2022-11-01T23:18:31.758Z,8.00
2022-11-01T23:21:05.433Z,10.53
2022-11-01T23:23:34.624Z,7.87
2022-11-01T23:26:04.148Z,7.73
2022-11-01T23:28:34.939Z,11.70
2022-11-01T23:31:06.643Z,4.77
2022-11-01T23:33:46.238Z,4.57
2022-11-01T23:36:30.412Z,10.63
2022-11-01T23:39:03.604Z,2.93
2022-11-01T23:41:39.984Z,6.83
2022-11-01T23:44:32.079Z,8.23
2022-11-01T23:47:18.441Z,4.50
2022-11-01T23:49:46.325Z,3.27
2022-11-01T23:52:45.784Z,8.30
2022-11-01T23:55:39.548Z,4.80
